createdAt,value
2018-07-06T00:00:34.492Z,25.73
2018-07-06T00:03:14.524Z,25.17
2018-07-06T00:05:54.486Z,23.13
2018-07-06T00:08:34.485Z,27.27
2018-07-06T00:11:14.540Z,24.07
2018-07-06T00:13:54.377Z,24.20
2018-07-06T00:16:34.440Z,25.87
2018-07-06T00:19:14.545Z,27.20
2018-07-06T00:21:54.479Z,32.57
2018-07-06T00:24:34.391Z,27.23
2018-07-06T00:27:14.611Z,30.40
2018-07-06T00:29:54.590Z,26.87
2018-07-06T00:32:34.538Z,29.30
2018-07-06T00:35:14.346Z,28.30
2018-07-06T00:37:54.529Z,29.20
2018-07-06T00:40:34.441Z,31.60
2018-07-06T00:43:14.545Z,27.37
2018-07-06T00:45:54.463Z,28.97
2018-07-06T00:48:34.524Z,27.37
2018-07-06T00:51:14.382Z,34.57
2018-07-06T00:53:54.429Z,30.27
2018-07-06T00:56:34.502Z,27.87
2018-07-06T00:59:14.449Z,30.53
2018-07-06T01:01:54.312Z,28.10
2018-07-06T01:04:34.497Z,29.40
2018-07-06T01:07:14.644Z,31.67
2018-07-06T01:09:54.526Z,28.77
2018-07-06T01:12:39.598Z,39.67
2018-07-06T01:15:24.525Z,28.53
2018-07-06T01:18:04.416Z,30.70
2018-07-06T01:20:44.510Z,33.73
2018-07-06T01:23:24.364Z,37.50
2018-07-06T01:26:04.523Z,35.93
2018-07-06T01:28:44.422Z,33.30
2018-07-06T01:31:24.373Z,37.67
2018-07-06T01:34:04.311Z,35.63
2018-07-06T01:36:44.531Z,36.13
2018-07-06T01:39:24.421Z,33.57
2018-07-06T01:42:04.529Z,38.87
2018-07-06T01:44:44.412Z,39.10
2018-07-06T01:47:24.371Z,45.47
2018-07-06T01:50:04.565Z,36.50
2018-07-06T01:52:44.523Z,48.40
2018-07-06T01:55:24.870Z,38.17
2018-07-06T01:58:05.036Z,43.63
2018-07-06T02:00:45.073Z,40.67
2018-07-06T02:03:24.843Z,43.97
2018-07-06T02:06:04.675Z,33.40
2018-07-06T02:08:44.507Z,44.10
2018-07-06T02:11:24.540Z,30.23
2018-07-06T02:14:04.613Z,28.23
2018-07-06T02:16:44.490Z,29.90
2018-07-06T02:19:24.547Z,26.90
2018-07-06T02:22:04.451Z,28.47
2018-07-06T02:24:44.479Z,29.37
2018-07-06T02:27:24.445Z,26.83
2018-07-06T02:30:04.378Z,28.57
2018-07-06T02:32:44.417Z,26.60
2018-07-06T02:35:24.374Z,27.30
2018-07-06T02:38:04.343Z,26.77
2018-07-06T02:40:44.435Z,26.60
2018-07-06T02:43:24.511Z,26.33
2018-07-06T02:46:04.391Z,25.43
2018-07-06T02:48:44.345Z,26.73
2018-07-06T02:51:24.537Z,27.57
2018-07-06T02:54:04.341Z,26.43
2018-07-06T02:56:44.445Z,25.50
2018-07-06T02:59:24.402Z,26.07
2018-07-06T03:02:04.506Z,23.33
2018-07-06T03:04:44.523Z,26.43
2018-07-06T03:07:24.339Z,26.13
2018-07-06T03:10:04.513Z,26.43
2018-07-06T03:12:44.345Z,25.13
2018-07-06T03:15:24.209Z,24.43
2018-07-06T03:18:04.230Z,27.17
2018-07-06T03:20:44.404Z,26.67
2018-07-06T03:23:24.475Z,26.87
2018-07-06T03:26:04.313Z,27.00
2018-07-06T03:28:44.651Z,27.30
2018-07-06T03:31:24.413Z,25.67
2018-07-06T03:34:04.454Z,28.40
2018-07-06T03:36:44.483Z,27.83
2018-07-06T03:39:24.348Z,26.43
2018-07-06T03:42:04.382Z,26.43
2018-07-06T03:44:44.464Z,26.93
2018-07-06T03:47:24.358Z,26.90
2018-07-06T03:50:04.276Z,24.47
2018-07-06T03:52:44.328Z,26.53
2018-07-06T03:55:24.529Z,26.00
2018-07-06T03:58:05.100Z,24.80
2018-07-06T04:00:45.107Z,24.13
2018-07-06T04:03:25.012Z,24.30
2018-07-06T04:06:05.028Z,25.23
2018-07-06T04:08:44.855Z,25.33
2018-07-06T04:11:24.832Z,25.63
2018-07-06T04:14:04.642Z,25.73
2018-07-06T04:16:44.517Z,24.47
2018-07-06T04:19:24.438Z,23.17
2018-07-06T04:22:04.468Z,22.83
2018-07-06T04:24:44.432Z,22.83
2018-07-06T04:27:24.549Z,21.27
2018-07-06T04:30:04.663Z,19.80
2018-07-06T04:32:44.545Z,21.73
2018-07-06T04:35:24.413Z,21.90
2018-07-06T04:38:04.438Z,23.03
2018-07-06T04:40:44.446Z,22.07
2018-07-06T04:43:24.501Z,19.07
2018-07-06T04:46:04.434Z,18.57
2018-07-06T04:48:44.521Z,19.57
2018-07-06T04:51:24.232Z,17.60
2018-07-06T04:54:04.473Z,16.93
2018-07-06T04:56:44.437Z,16.30
2018-07-06T04:59:24.570Z,17.03
2018-07-06T05:02:04.369Z,16.03
2018-07-06T05:04:44.342Z,15.93
2018-07-06T05:07:24.401Z,15.17
2018-07-06T05:10:04.438Z,15.30
2018-07-06T05:12:44.432Z,16.40
2018-07-06T05:15:24.453Z,15.43
2018-07-06T05:18:04.398Z,14.40
2018-07-06T05:20:44.513Z,14.00
2018-07-06T05:23:24.502Z,14.50
2018-07-06T05:26:04.541Z,14.50
2018-07-06T05:28:44.608Z,14.17
2018-07-06T05:31:24.693Z,14.57
2018-07-06T05:34:04.803Z,12.53
2018-07-06T05:36:44.725Z,14.40
2018-07-06T05:39:24.820Z,13.40
2018-07-06T05:42:04.882Z,13.57
2018-07-06T05:44:44.946Z,13.27
2018-07-06T05:47:24.881Z,14.30
2018-07-06T05:50:05.116Z,12.83
2018-07-06T05:52:45.074Z,12.10
2018-07-06T05:55:25.126Z,13.70
2018-07-06T05:58:05.096Z,14.33
2018-07-06T06:00:45.051Z,12.90
2018-07-06T06:03:24.998Z,13.20
2018-07-06T06:06:05.022Z,13.43
2018-07-06T06:08:32.452Z,14.50
2018-07-06T06:11:01.105Z,15.50
2018-07-06T06:13:29.777Z,15.13
2018-07-06T06:15:58.456Z,16.73
2018-07-06T06:18:27.191Z,18.00
2018-07-06T06:20:56.208Z,16.40
2018-07-06T06:23:25.286Z,16.30
2018-07-06T06:25:54.231Z,18.97
2018-07-06T06:28:22.862Z,19.53
2018-07-06T06:30:51.645Z,19.27
2018-07-06T06:33:20.435Z,20.43
2018-07-06T06:35:49.253Z,20.63
2018-07-06T06:38:17.945Z,21.83
2018-07-06T06:40:47.010Z,21.50
2018-07-06T06:43:16.198Z,21.30
2018-07-06T06:45:45.329Z,23.53
2018-07-06T06:48:14.443Z,23.53
2018-07-06T06:50:43.332Z,19.43
2018-07-06T06:53:12.262Z,22.93
2018-07-06T06:55:40.990Z,25.10
2018-07-06T06:58:09.657Z,27.70
2018-07-06T07:00:38.356Z,24.83
2018-07-06T07:03:07.247Z,26.27
2018-07-06T07:05:36.385Z,30.63
2018-07-06T07:08:05.568Z,30.63
2018-07-06T07:10:34.573Z,28.63
2018-07-06T07:13:03.346Z,28.67
2018-07-06T07:15:32.139Z,30.17
2018-07-06T07:18:00.505Z,28.07
2018-07-06T07:20:29.250Z,28.77
2018-07-06T07:22:58.213Z,30.33
2018-07-06T07:25:27.179Z,29.80
2018-07-06T07:27:56.241Z,26.27
2018-07-06T07:30:24.913Z,28.23
2018-07-06T07:32:54.046Z,28.20
2018-07-06T07:35:22.764Z,27.67
2018-07-06T07:37:51.506Z,27.13
2018-07-06T07:40:20.217Z,26.77
2018-07-06T07:42:49.281Z,27.03
2018-07-06T07:45:18.006Z,26.90
2018-07-06T07:47:47.209Z,27.37
2018-07-06T07:50:16.055Z,29.27
2018-07-06T07:52:55.832Z,28.07
2018-07-06T07:55:24.825Z,30.40
2018-07-06T07:57:53.651Z,28.93
2018-07-06T08:00:22.414Z,27.83
2018-07-06T08:02:51.085Z,29.13
2018-07-06T08:05:19.877Z,28.23
2018-07-06T08:07:48.585Z,28.27
2018-07-06T08:10:17.289Z,27.57
2018-07-06T08:12:46.384Z,27.37
2018-07-06T08:15:15.274Z,28.27
2018-07-06T08:17:44.389Z,29.07
2018-07-06T08:20:13.143Z,28.80
2018-07-06T08:22:42.001Z,29.20
2018-07-06T08:25:10.678Z,33.53
2018-07-06T08:27:39.357Z,34.20
2018-07-06T08:30:08.313Z,28.90
2018-07-06T08:32:37.946Z,26.93
2018-07-06T08:35:17.811Z,29.10
2018-07-06T08:37:58.956Z,29.60
2018-07-06T08:40:28.101Z,30.37
2018-07-06T08:42:57.942Z,31.70
2018-07-06T08:45:27.228Z,29.43
2018-07-06T08:47:56.241Z,30.83
2018-07-06T08:50:25.536Z,29.20
2018-07-06T08:52:55.130Z,25.63
2018-07-06T08:55:24.447Z,25.90
2018-07-06T08:57:54.705Z,26.43
2018-07-06T09:00:23.377Z,27.43
2018-07-06T09:02:53.088Z,25.37
2018-07-06T09:05:21.940Z,23.67
2018-07-06T09:07:50.657Z,23.47
2018-07-06T09:10:19.344Z,22.17
2018-07-06T09:12:48.063Z,24.37
2018-07-06T09:15:16.823Z,26.50
2018-07-06T09:17:46.160Z,25.30
2018-07-06T09:20:15.446Z,21.70
2018-07-06T09:22:44.313Z,23.00
2018-07-06T09:25:13.179Z,21.90
2018-07-06T09:27:41.921Z,19.80
2018-07-06T09:30:10.240Z,20.63
2018-07-06T09:32:38.916Z,18.83
2018-07-06T09:35:07.589Z,21.53
2018-07-06T09:37:36.045Z,24.33
2018-07-06T09:40:04.500Z,23.20
2018-07-06T09:42:33.489Z,20.43
2018-07-06T09:45:01.996Z,21.30
2018-07-06T09:47:30.939Z,22.13
2018-07-06T09:49:59.759Z,19.60
2018-07-06T09:52:28.391Z,20.50
2018-07-06T09:54:57.070Z,19.87
2018-07-06T09:57:26.032Z,22.13
2018-07-06T09:59:55.211Z,19.80
2018-07-06T10:02:24.370Z,19.17
2018-07-06T10:04:53.187Z,17.80
2018-07-06T10:07:21.898Z,17.53
2018-07-06T10:09:50.591Z,16.93
2018-07-06T10:12:19.265Z,15.80
2018-07-06T10:14:47.928Z,15.67
2018-07-06T10:17:16.833Z,15.73
2018-07-06T10:19:45.919Z,12.97
2018-07-06T10:22:14.928Z,14.03
2018-07-06T10:24:44.141Z,13.20
2018-07-06T10:27:12.835Z,13.57
2018-07-06T10:30:17.341Z,13.20
2018-07-06T10:32:46.222Z,13.40
2018-07-06T10:35:15.372Z,13.60
2018-07-06T10:37:44.509Z,13.03
2018-07-06T10:40:13.783Z,12.37
2018-07-06T10:42:42.476Z,13.00
2018-07-06T10:45:11.146Z,11.93
2018-07-06T10:47:39.940Z,11.17
2018-07-06T10:50:08.618Z,11.37
2018-07-06T10:52:37.320Z,10.17
2018-07-06T10:55:06.560Z,9.30
2018-07-06T10:57:35.579Z,9.57
2018-07-06T11:00:04.849Z,8.47
2018-07-06T11:02:33.748Z,8.57
2018-07-06T11:05:02.081Z,8.70
2018-07-06T11:07:30.766Z,8.53
2018-07-06T11:09:59.465Z,9.67
2018-07-06T11:12:28.119Z,8.43
2018-07-06T11:14:56.827Z,8.67
2018-07-06T11:17:25.740Z,8.23
2018-07-06T11:19:54.653Z,9.03
2018-07-06T11:22:23.419Z,7.80
2018-07-06T11:24:52.109Z,7.93
2018-07-06T11:27:20.746Z,7.37
2018-07-06T11:29:49.444Z,6.87
2018-07-06T11:32:18.125Z,7.47
2018-07-06T11:34:47.141Z,7.40
2018-07-06T11:37:16.283Z,7.40
2018-07-06T11:39:45.611Z,8.17
2018-07-06T11:42:14.856Z,7.53
2018-07-06T11:44:43.872Z,9.77
2018-07-06T11:47:12.771Z,8.13
2018-07-06T11:49:41.644Z,8.17
2018-07-06T11:52:10.541Z,7.80
2018-07-06T11:54:39.470Z,7.77
2018-07-06T11:57:08.293Z,7.00
2018-07-06T11:59:37.235Z,6.30
2018-07-06T12:02:06.535Z,6.60
2018-07-06T12:04:35.685Z,5.93
2018-07-06T12:07:04.845Z,5.90
2018-07-06T12:09:34.077Z,5.83
2018-07-06T12:12:02.775Z,6.40
2018-07-06T12:14:31.439Z,4.83
2018-07-06T12:17:00.138Z,6.57
2018-07-06T12:19:28.817Z,5.77
2018-07-06T12:21:57.512Z,4.77
2018-07-06T12:24:26.473Z,4.73
2018-07-06T12:26:55.451Z,3.90
2018-07-06T12:29:24.406Z,4.03
2018-07-06T12:31:53.198Z,4.63
2018-07-06T12:34:22.040Z,4.37
2018-07-06T12:36:50.675Z,3.70
2018-07-06T12:39:19.387Z,4.37
2018-07-06T12:41:48.076Z,3.77
2018-07-06T12:44:17.022Z,4.43
2018-07-06T12:46:46.094Z,4.00
2018-07-06T12:49:15.225Z,3.80
2018-07-06T12:51:44.494Z,4.53
2018-07-06T12:54:13.311Z,3.73
2018-07-06T12:56:42.157Z,3.67
2018-07-06T12:59:10.847Z,4.00
2018-07-06T13:01:39.564Z,3.83
2018-07-06T13:04:08.258Z,3.93
2018-07-06T13:06:36.978Z,3.90
2018-07-06T13:09:06.563Z,4.23
2018-07-06T13:11:35.602Z,3.77
2018-07-06T13:14:04.530Z,2.97
2018-07-06T13:16:33.334Z,3.83
2018-07-06T13:19:02.208Z,3.10
2018-07-06T13:21:30.873Z,3.00
2018-07-06T13:23:59.537Z,3.33
2018-07-06T13:26:28.291Z,2.90
2018-07-06T13:28:56.937Z,3.20
2018-07-06T13:31:26.077Z,3.20
2018-07-06T13:33:54.960Z,2.83
2018-07-06T13:36:23.810Z,2.83
2018-07-06T13:38:52.494Z,2.97
2018-07-06T13:41:21.214Z,2.90
2018-07-06T13:43:49.934Z,3.17
2018-07-06T13:46:18.583Z,2.53
2018-07-06T13:48:47.313Z,2.33
2018-07-06T13:51:16.306Z,2.67
2018-07-06T13:53:45.255Z,2.67
2018-07-06T13:56:14.497Z,3.03
2018-07-06T13:58:43.355Z,2.40
2018-07-06T14:01:12.172Z,2.67
2018-07-06T14:03:40.894Z,2.20
2018-07-06T14:06:09.656Z,2.17
2018-07-06T14:08:38.396Z,2.40
2018-07-06T14:11:07.066Z,2.80
2018-07-06T14:13:36.363Z,2.20
2018-07-06T14:16:05.500Z,2.50
2018-07-06T14:18:34.512Z,2.60
2018-07-06T14:21:03.371Z,2.50
2018-07-06T14:23:35.417Z,2.60
2018-07-06T14:26:04.353Z,2.07
2018-07-06T14:28:33.121Z,2.47
2018-07-06T14:31:01.982Z,1.90
2018-07-06T14:33:30.675Z,2.23
2018-07-06T14:35:59.405Z,2.00
2018-07-06T14:38:28.069Z,1.87
2018-07-06T14:40:56.927Z,2.23
2018-07-06T14:43:26.126Z,1.70
2018-07-06T14:45:55.228Z,1.80
2018-07-06T14:48:24.338Z,2.00
2018-07-06T14:50:53.140Z,2.30
2018-07-06T14:53:21.980Z,2.07
2018-07-06T14:55:50.643Z,1.93
2018-07-06T14:58:19.363Z,2.43
2018-07-06T15:00:48.037Z,2.33
2018-07-06T15:03:16.961Z,2.30
2018-07-06T15:05:46.135Z,2.43
2018-07-06T15:08:15.290Z,2.40
2018-07-06T15:10:44.401Z,1.93
2018-07-06T15:13:13.116Z,2.00
2018-07-06T15:15:41.888Z,2.20
2018-07-06T15:18:10.610Z,3.57
2018-07-06T15:20:39.258Z,1.70
2018-07-06T15:23:07.957Z,2.17
2018-07-06T15:25:36.906Z,1.80
2018-07-06T15:28:06.049Z,1.80
2018-07-06T15:30:34.965Z,1.50
2018-07-06T15:33:04.171Z,2.03
2018-07-06T15:35:32.877Z,2.50
2018-07-06T15:38:01.726Z,1.83
2018-07-06T15:40:30.422Z,1.93
2018-07-06T15:42:59.120Z,1.80
2018-07-06T15:45:27.768Z,1.73
2018-07-06T15:47:56.697Z,2.10
2018-07-06T15:50:25.625Z,2.07
2018-07-06T15:52:54.588Z,2.00
2018-07-06T15:55:23.287Z,1.90
2018-07-06T15:57:52.155Z,1.70
2018-07-06T16:00:20.840Z,2.47
2018-07-06T16:02:49.521Z,2.13
2018-07-06T16:05:18.181Z,1.73
2018-07-06T16:07:46.886Z,1.63
2018-07-06T16:10:16.010Z,1.30
2018-07-06T16:12:45.059Z,1.87
2018-07-06T16:15:14.103Z,2.80
2018-07-06T16:17:42.802Z,1.90
2018-07-06T16:20:11.552Z,1.73
2018-07-06T16:22:40.233Z,1.67
2018-07-06T16:25:09.036Z,1.50
2018-07-06T16:27:37.692Z,1.73
2018-07-06T16:30:06.635Z,1.60
2018-07-06T16:32:35.630Z,1.63
2018-07-06T16:35:04.509Z,1.80
2018-07-06T16:37:33.204Z,1.27
2018-07-06T16:40:02.091Z,1.50
2018-07-06T16:42:30.753Z,1.87
2018-07-06T16:44:59.491Z,2.00
2018-07-06T16:47:28.150Z,1.60
2018-07-06T16:49:56.903Z,1.90
2018-07-06T16:52:26.137Z,1.80
2018-07-06T16:54:55.405Z,1.40
2018-07-06T16:57:24.343Z,2.00
2018-07-06T16:59:53.118Z,2.30
2018-07-06T17:02:21.982Z,1.60
2018-07-06T17:04:50.661Z,1.57
2018-07-06T17:07:19.334Z,1.60
2018-07-06T17:09:48.060Z,1.80
2018-07-06T17:12:16.882Z,2.00
2018-07-06T17:14:45.965Z,1.60
2018-07-06T17:17:14.777Z,1.50
2018-07-06T17:19:43.590Z,2.07
2018-07-06T17:22:12.319Z,4.13
2018-07-06T17:24:40.981Z,2.00
2018-07-06T17:27:09.850Z,1.80
2018-07-06T17:29:38.553Z,2.00
2018-07-06T17:32:07.309Z,2.47
2018-07-06T17:34:36.189Z,1.73
2018-07-06T17:37:05.328Z,1.73
2018-07-06T17:39:34.490Z,1.73
2018-07-06T17:42:03.258Z,2.10
2018-07-06T17:44:32.098Z,1.87
2018-07-06T17:47:00.794Z,2.33
2018-07-06T17:49:29.455Z,2.10
2018-07-06T17:51:58.144Z,2.67
2018-07-06T17:54:26.945Z,2.40
2018-07-06T17:56:56.281Z,2.37
2018-07-06T17:59:25.354Z,2.77
2018-07-06T18:01:54.304Z,2.37
2018-07-06T18:04:23.066Z,2.70
2018-07-06T18:06:51.850Z,2.80
2018-07-06T18:09:20.639Z,3.23
2018-07-06T18:11:49.509Z,2.33
2018-07-06T18:14:18.231Z,2.67
2018-07-06T18:16:46.966Z,2.73
2018-07-06T18:19:16.260Z,8.83
2018-07-06T18:21:45.441Z,3.77
2018-07-06T18:24:14.530Z,3.27
2018-07-06T18:26:43.281Z,3.30
2018-07-06T18:29:12.033Z,3.40
2018-07-06T18:31:40.729Z,3.40
2018-07-06T18:34:09.496Z,4.57
2018-07-06T18:36:38.158Z,4.13
2018-07-06T18:39:07.229Z,3.20
2018-07-06T18:41:36.213Z,3.87
2018-07-06T18:44:05.403Z,3.80
2018-07-06T18:46:34.498Z,3.87
2018-07-06T18:49:03.231Z,3.53
2018-07-06T18:51:32.038Z,3.67
2018-07-06T18:54:00.864Z,4.07
2018-07-06T18:56:29.528Z,3.50
2018-07-06T18:58:58.303Z,3.97
2018-07-06T19:01:27.014Z,3.57
2018-07-06T19:03:56.182Z,4.07
2018-07-06T19:06:25.338Z,3.87
2018-07-06T19:08:54.328Z,3.50
2018-07-06T19:11:23.119Z,4.27
2018-07-06T19:13:52.186Z,3.50
2018-07-06T19:16:20.926Z,3.33
2018-07-06T19:18:49.655Z,4.00
2018-07-06T19:21:18.524Z,4.17
2018-07-06T19:23:47.340Z,4.50
2018-07-06T19:26:16.325Z,4.13
2018-07-06T19:28:45.454Z,7.10
2018-07-06T19:31:14.351Z,5.77
2018-07-06T19:33:43.149Z,4.90
2018-07-06T19:36:11.999Z,4.17
2018-07-06T19:38:40.766Z,5.67
2018-07-06T19:41:09.506Z,4.57
2018-07-06T19:43:38.219Z,3.87
2018-07-06T19:46:07.159Z,4.17
2018-07-06T19:48:36.328Z,4.47
2018-07-06T19:51:05.327Z,4.60
2018-07-06T19:53:34.496Z,4.60
2018-07-06T19:56:07.001Z,4.40
2018-07-06T19:58:36.144Z,4.23
2018-07-06T20:01:05.319Z,4.83
2018-07-06T20:03:34.473Z,4.70
2018-07-06T20:06:03.324Z,4.77
2018-07-06T20:08:32.059Z,4.50
2018-07-06T20:11:00.732Z,5.77
2018-07-06T20:13:29.452Z,4.70
2018-07-06T20:15:58.116Z,5.53
2018-07-06T20:18:26.960Z,4.73
2018-07-06T20:20:56.045Z,4.83
2018-07-06T20:23:25.095Z,4.43
2018-07-06T20:25:54.031Z,4.40
2018-07-06T20:28:22.674Z,4.97
2018-07-06T20:30:51.349Z,4.63
2018-07-06T20:33:20.033Z,4.60
2018-07-06T20:35:48.726Z,4.57
2018-07-06T20:38:17.440Z,4.90
2018-07-06T20:40:46.400Z,4.87
2018-07-06T20:43:15.424Z,4.33
2018-07-06T20:45:44.544Z,4.87
2018-07-06T20:48:13.349Z,5.00
2018-07-06T20:50:42.056Z,6.20
2018-07-06T20:53:10.749Z,4.70
2018-07-06T20:55:39.433Z,4.80
2018-07-06T20:58:08.128Z,4.53
2018-07-06T21:00:36.917Z,4.83
2018-07-06T21:03:06.744Z,5.67
2018-07-06T21:05:36.013Z,4.37
2018-07-06T21:08:05.167Z,4.93
2018-07-06T21:10:34.070Z,4.93
2018-07-06T21:13:02.785Z,5.83
2018-07-06T21:15:31.487Z,4.57
2018-07-06T21:18:00.154Z,4.53
2018-07-06T21:20:28.922Z,5.30
2018-07-06T21:22:57.576Z,4.90
2018-07-06T21:25:25.945Z,5.13
2018-07-06T21:27:54.884Z,4.40
2018-07-06T21:30:23.737Z,5.23
2018-07-06T21:32:52.468Z,5.00
2018-07-06T21:35:21.181Z,5.23
2018-07-06T21:37:50.003Z,4.90
2018-07-06T21:40:18.687Z,5.27
2018-07-06T21:42:47.357Z,5.03
2018-07-06T21:45:16.325Z,5.77
2018-07-06T21:47:45.522Z,6.50
2018-07-06T21:50:14.517Z,5.90
2018-07-06T21:52:48.535Z,5.60
2018-07-06T21:55:17.213Z,6.60
2018-07-06T21:57:46.287Z,5.83
2018-07-06T22:00:15.323Z,5.60
2018-07-06T22:02:44.285Z,8.23
2018-07-06T22:05:13.115Z,6.47
2018-07-06T22:07:41.915Z,6.20
2018-07-06T22:10:10.627Z,6.07
2018-07-06T22:12:39.302Z,5.80
2018-07-06T22:15:07.955Z,6.13
2018-07-06T22:17:36.889Z,6.57
2018-07-06T22:20:05.878Z,6.40
2018-07-06T22:22:34.916Z,5.30
2018-07-06T22:25:03.845Z,5.77
2018-07-06T22:27:32.506Z,6.00
2018-07-06T22:30:01.162Z,6.60
2018-07-06T22:32:29.923Z,6.00
2018-07-06T22:34:58.588Z,6.63
2018-07-06T22:37:27.241Z,6.77
2018-07-06T22:39:56.202Z,5.90
2018-07-06T22:42:25.306Z,6.50
2018-07-06T22:44:54.462Z,6.53
2018-07-06T22:47:23.201Z,6.17
2018-07-06T22:49:52.168Z,6.33
2018-07-06T22:52:20.839Z,5.90
2018-07-06T22:54:49.496Z,6.17
2018-07-06T22:57:18.180Z,6.50
2018-07-06T22:59:46.838Z,9.77
2018-07-06T23:02:15.949Z,6.03
2018-07-06T23:04:44.837Z,6.37
2018-07-06T23:07:14.015Z,6.63
2018-07-06T23:09:42.678Z,6.40
2018-07-06T23:12:11.358Z,7.10
2018-07-06T23:14:40.008Z,6.30
2018-07-06T23:17:08.718Z,6.80
2018-07-06T23:19:37.033Z,7.10
2018-07-06T23:22:06.369Z,6.67
2018-07-06T23:24:35.474Z,8.27
2018-07-06T23:27:04.544Z,7.50
2018-07-06T23:29:33.415Z,7.13
2018-07-06T23:32:02.118Z,7.97
2018-07-06T23:34:30.845Z,7.40
2018-07-06T23:36:59.507Z,7.43
2018-07-06T23:39:28.159Z,7.47
2018-07-06T23:41:56.925Z,7.80
2018-07-06T23:44:26.140Z,7.20
2018-07-06T23:46:55.158Z,8.03
2018-07-06T23:49:24.180Z,7.97
2018-07-06T23:51:52.915Z,7.43
2018-07-06T23:54:21.574Z,7.73
2018-07-06T23:56:50.313Z,7.27
2018-07-06T23:59:18.972Z,6.97
